Terminal Aerodrome Forecast
Issued by NWS

Home | Current Version | Previous Version | Text Only | Print | Product List | Glossary On
Versions: 1 2 3 4 5 6 7 8 9 10 11 12 13 14 15 16 17 18 19 20 21 22 23
000
FTUS41 KBGM 160500
TAFELM
TAF
KELM 160532Z 1606/1706 VRB02KT P6SM -SHRA OVC040
      TEMPO 1606/1610 5SM -SHRA BR OVC018
     FM161000 VRB02KT 5SM -SHRA BR OVC025
     FM161400 32007KT P6SM BKN050
     FM162200 34006KT P6SM SCT050
     FM170100 VRB03KT P6SM SCT040=

USA.gov is the U.S. government's official web portal to all federal, state and local government web resources and services.